Tiny Town, Kentucky
Current Conditions -  °F | °C
As of 9:52 AM on Thursday 27 Nov 2014 (Local Time) from KCKV Reporting Station
Broken Clouds Broken Clouds  
Wind Chill: 27°   Ceiling: 2400
Heat Index: 36°   Visibility: 10mi
Dew Point: 27°   Wind: 15mph
Humidity: 70%   Direction: 310°NW
Pressure: 30.42"   Gusts: NA
Location:  36.705°N, 87.1786°W
Report Text: KCKV 271552Z AUTO 31013KT 10SM BKN024 02/M03 A3042 RMK AO2 SLP304 T00221028
Loading
Personal Weather Stations






























Interactive Weather Map New forecast layout! Learn more

10-Day Weather Forecast

Advertisements
Track Severe Weather on mobile